Time;durP1;ratioP1;P1;durP2;ratioP2;P2;SDS_P1;SDS_P2;PMS_P1;PMS_P2;Temp;Humidity;BMP_temperature;BMP_pressure;BME280_temperature;BME280_humidity;BME280_pressure;Samples;Min_cycle;Max_cycle;Signal;HPM_P1;HPM_P2
2023/06/08 00:02:13;;;;;;;15.45;8.35;;;;;;;17.72;61.60;101691.75;5068543;28;20020;-61
2023/06/08 00:04:41;;;;;;;15.85;7.75;;;;;;;17.90;61.67;101697.53;5072595;28;20174;-61
2023/06/08 00:07:08;;;;;;;15.87;8.40;;;;;;;17.69;62.17;101687.47;5070956;28;20572;-61
2023/06/08 00:09:37;;;;;;;16.25;8.60;;;;;;;17.63;62.15;101687.97;5017598;28;20278;-61
2023/06/08 00:12:03;;;;;;;14.05;8.40;;;;;;;17.77;62.02;101691.41;5052161;28;20148;-61
2023/06/08 00:14:28;;;;;;;12.65;8.52;;;;;;;17.84;61.92;101696.19;5071251;28;20037;-61
2023/06/08 00:16:54;;;;;;;14.25;8.50;;;;;;;17.69;61.89;101679.41;5071023;28;20026;-60
2023/06/08 00:19:19;;;;;;;15.25;8.77;;;;;;;17.62;62.40;101688.09;4980628;28;20025;-61
2023/06/08 00:21:48;;;;;;;17.38;8.52;;;;;;;17.57;62.70;101692.97;4989175;28;20030;-61
2023/06/08 00:24:19;;;;;;;13.80;8.33;;;;;;;17.48;62.85;101687.34;4982947;28;20097;-61
2023/06/08 00:26:44;;;;;;;15.10;8.60;;;;;;;17.58;62.66;101694.69;4970915;28;20274;-61
2023/06/08 00:29:10;;;;;;;12.43;8.38;;;;;;;17.65;62.51;101683.31;4969747;28;20482;-61
2023/06/08 00:31:37;;;;;;;18.13;8.85;;;;;;;17.54;62.80;101688.69;4969181;28;20523;-61
2023/06/08 00:34:02;;;;;;;18.30;8.50;;;;;;;17.56;62.72;101685.88;4970700;28;20557;-61
2023/06/08 00:36:28;;;;;;;17.60;8.95;;;;;;;17.52;62.54;101679.03;5007295;28;20050;-61
2023/06/08 00:38:53;;;;;;;15.05;8.20;;;;;;;17.25;63.43;101673.00;5072039;28;20448;-61
2023/06/08 00:41:19;;;;;;;14.88;8.30;;;;;;;17.28;63.89;101685.34;5072105;28;20028;-61
2023/06/08 00:50:28;;;;;;;15.18;9.00;;;;;;;17.23;64.33;101674.09;4950772;29;20399;-61
2023/06/08 00:52:54;;;;;;;18.10;8.98;;;;;;;17.27;63.92;101670.22;4966237;28;20103;-61
2023/06/08 00:55:19;;;;;;;16.80;8.18;;;;;;;17.23;64.26;101672.25;4989924;28;20483;-61
2023/06/08 00:57:47;;;;;;;17.00;8.43;;;;;;;17.20;64.40;101669.81;4990032;28;20150;-60
2023/06/08 01:00:13;;;;;;;17.52;9.23;;;;;;;17.13;64.93;101671.28;4989403;28;20539;-61
2023/06/08 01:02:40;;;;;;;19.52;9.38;;;;;;;17.11;65.16;101672.38;4989963;28;20038;-61
2023/06/08 01:05:06;;;;;;;16.90;9.65;;;;;;;17.11;64.90;101664.31;4980416;28;20047;-61
2023/06/08 01:07:34;;;;;;;14.05;8.90;;;;;;;17.13;65.04;101659.69;4969200;28;20057;-61
2023/06/08 01:10:10;;;;;;;13.45;8.95;;;;;;;16.98;65.24;101661.72;4987147;28;20039;-61
2023/06/08 01:12:55;;;;;;;17.08;9.10;;;;;;;16.98;65.63;101664.41;5072229;28;20426;-61
2023/06/08 01:15:35;;;;;;;19.83;8.95;;;;;;;17.12;64.92;101666.00;5071431;28;20103;-61
2023/06/08 01:18:07;;;;;;;17.13;8.57;;;;;;;17.03;65.75;101667.59;5071798;28;20448;-61
2023/06/08 01:20:34;;;;;;;19.08;9.60;;;;;;;16.90;66.05;101667.66;5072057;28;20021;-61
2023/06/08 01:23:07;;;;;;;18.25;9.50;;;;;;;16.80;66.31;101666.69;5071650;28;20468;-61
2023/06/08 01:25:36;;;;;;;17.25;9.40;;;;;;;16.82;66.45;101664.72;4978898;28;20030;-61
2023/06/08 01:28:13;;;;;;;22.65;9.75;;;;;;;16.84;66.39;101660.09;5032860;28;20347;-61
2023/06/08 01:30:43;;;;;;;18.10;8.93;;;;;;;16.73;66.75;101666.22;5071158;28;20028;-61
2023/06/08 01:33:12;;;;;;;16.92;9.30;;;;;;;16.67;66.69;101655.94;5071741;28;20032;-61
2023/06/08 01:35:37;;;;;;;18.52;9.18;;;;;;;16.61;66.95;101642.13;5071579;28;20028;-61
2023/06/08 01:38:14;;;;;;;23.48;9.82;;;;;;;16.53;67.40;101650.75;4994048;28;20023;-61
2023/06/08 01:40:43;;;;;;;18.45;9.68;;;;;;;16.54;67.46;101657.88;4961124;28;20066;-61
2023/06/08 01:43:11;;;;;;;16.38;9.02;;;;;;;16.50;67.35;101649.19;4970022;28;20031;-61
2023/06/08 01:45:45;;;;;;;18.83;9.73;;;;;;;16.50;67.91;101659.06;5054230;28;20230;-61
2023/06/08 01:48:13;;;;;;;24.85;10.40;;;;;;;16.59;67.50;101661.06;5073748;28;20490;-61
2023/06/08 01:50:39;;;;;;;21.27;9.98;;;;;;;16.48;67.65;101651.13;5073802;28;20017;-61
2023/06/08 01:53:05;;;;;;;20.83;10.13;;;;;;;16.53;67.72;101650.75;5074354;28;20425;-61
2023/06/08 01:55:31;;;;;;;19.58;9.77;;;;;;;16.41;68.52;101647.16;5073704;28;20020;-61
2023/06/08 01:57:56;;;;;;;18.10;9.65;;;;;;;16.34;68.24;101644.09;5075105;28;20028;-61
2023/06/08 02:00:22;;;;;;;21.48;10.27;;;;;;;16.29;68.67;101630.16;5090264;28;20074;-62
2023/06/08 02:02:47;;;;;;;23.30;10.38;;;;;;;16.33;68.61;101641.53;5072302;28;20020;-61
2023/06/08 02:05:14;;;;;;;24.17;10.93;;;;;;;16.20;68.64;101638.91;5073441;28;20367;-61
2023/06/08 02:07:41;;;;;;;18.92;10.15;;;;;;;16.21;69.01;101642.47;5028981;28;20023;-61
2023/06/08 02:10:08;;;;;;;17.40;10.82;;;;;;;16.09;69.31;101638.84;4975758;28;20107;-61
2023/06/08 02:12:34;;;;;;;20.65;10.55;;;;;;;16.28;68.64;101647.25;4986358;28;20549;-61
2023/06/08 02:15:00;;;;;;;15.50;10.90;;;;;;;16.21;69.03;101648.69;4990002;28;20038;-61
2023/06/08 02:17:33;;;;;;;16.30;10.35;;;;;;;16.25;68.93;101649.31;4989644;28;20041;-61
2023/06/08 02:20:05;;;;;;;21.98;10.43;;;;;;;16.12;69.30;101647.53;4989540;28;20547;-61
2023/06/08 02:22:31;;;;;;;18.25;10.50;;;;;;;15.99;69.62;101644.03;4961168;28;20030;-61
2023/06/08 02:24:57;;;;;;;18.50;10.02;;;;;;;16.09;69.66;101649.59;4984358;28;20037;-61
2023/06/08 02:27:22;;;;;;;19.02;10.68;;;;;;;16.05;69.62;101651.63;4989583;28;20034;-61
2023/06/08 02:29:47;;;;;;;16.88;10.25;;;;;;;15.97;69.99;101651.34;4987421;28;20149;-61
2023/06/08 02:32:13;;;;;;;22.17;11.68;;;;;;;16.08;69.84;101648.72;4989961;28;20366;-61
2023/06/08 02:34:38;;;;;;;19.98;10.45;;;;;;;16.00;69.79;101645.75;4988830;28;20084;-61
2023/06/08 02:37:07;;;;;;;18.23;10.73;;;;;;;15.80;70.32;101647.19;4984469;28;20022;-61
2023/06/08 02:39:32;;;;;;;17.98;10.40;;;;;;;15.89;69.88;101654.56;4985219;28;20564;-61
2023/06/08 02:41:57;;;;;;;19.88;10.43;;;;;;;15.89;70.14;101657.25;4989169;28;20030;-61
2023/06/08 02:44:23;;;;;;;19.83;11.05;;;;;;;15.70;71.06;101651.50;4988718;28;20029;-60
2023/06/08 02:46:48;;;;;;;19.08;10.85;;;;;;;15.85;70.42;101644.16;4984973;28;20083;-61
2023/06/08 02:49:14;;;;;;;20.35;10.98;;;;;;;15.70;70.78;101645.28;4985876;28;20034;-61
2023/06/08 02:51:39;;;;;;;15.18;10.65;;;;;;;15.66;70.96;101652.66;4988010;28;20481;-60
2023/06/08 02:54:05;;;;;;;22.10;11.50;;;;;;;15.73;70.50;101653.09;4990570;28;20022;-61
2023/06/08 02:56:33;;;;;;;19.05;10.98;;;;;;;15.64;70.54;101646.53;4990425;28;20393;-61
2023/06/08 02:58:58;;;;;;;21.70;11.60;;;;;;;15.59;70.69;101640.66;4990543;28;20022;-61
2023/06/08 03:01:24;;;;;;;19.27;11.82;;;;;;;15.64;70.91;101643.84;4987579;28;20030;-61
2023/06/08 03:03:51;;;;;;;21.58;11.55;;;;;;;15.34;71.87;101647.75;4986601;28;20087;-61
2023/06/08 03:06:18;;;;;;;16.83;10.43;;;;;;;15.49;71.65;101647.63;4988777;28;20111;-61
2023/06/08 03:08:55;;;;;;;22.98;12.18;;;;;;;15.47;71.47;101637.03;5069037;28;20027;-61
2023/06/08 03:11:22;;;;;;;23.40;12.63;;;;;;;15.45;71.51;101647.88;4972644;28;20488;-61
2023/06/08 03:13:49;;;;;;;18.70;11.40;;;;;;;15.46;71.64;101638.00;4988177;28;20034;-61
2023/06/08 03:16:15;;;;;;;18.38;12.07;;;;;;;15.39;72.03;101639.41;4989453;28;20030;-61
2023/06/08 03:18:41;;;;;;;19.50;11.73;;;;;;;15.42;71.70;101628.47;4988872;28;20041;-61
2023/06/08 03:21:07;;;;;;;20.23;11.88;;;;;;;15.39;72.05;101636.72;4989460;28;20042;-61
2023/06/08 03:23:35;;;;;;;18.45;10.95;;;;;;;15.29;72.28;101638.31;4968914;28;20033;-61
2023/06/08 03:26:01;;;;;;;22.73;12.18;;;;;;;15.29;72.35;101649.03;4977329;28;20022;-62
2023/06/08 03:28:27;;;;;;;18.88;11.30;;;;;;;15.37;72.18;101642.19;4990121;28;20038;-61
2023/06/08 03:30:52;;;;;;;22.75;12.40;;;;;;;15.39;71.85;101645.63;4972972;28;20049;-60
2023/06/08 03:33:19;;;;;;;20.63;12.45;;;;;;;15.26;72.28;101641.22;4971903;28;20484;-61
2023/06/08 03:35:45;;;;;;;19.25;11.85;;;;;;;15.25;72.31;101636.84;4971704;28;20027;-61
2023/06/08 03:38:10;;;;;;;17.67;11.75;;;;;;;15.32;72.06;101638.94;4969648;28;20034;-61
2023/06/08 03:40:36;;;;;;;20.77;12.13;;;;;;;15.38;71.93;101640.34;5002677;28;20030;-61
2023/06/08 03:43:01;;;;;;;19.33;11.65;;;;;;;15.23;72.53;101650.31;4976746;28;20108;-61
2023/06/08 03:45:27;;;;;;;20.38;12.10;;;;;;;15.13;72.82;101630.50;4971074;28;20034;-61
2023/06/08 03:47:52;;;;;;;19.65;11.63;;;;;;;15.18;72.91;101645.31;4970336;28;20062;-61
2023/06/08 03:50:17;;;;;;;21.20;12.43;;;;;;;15.27;72.29;101645.63;4971471;28;20030;-61
2023/06/08 03:52:43;;;;;;;23.55;11.95;;;;;;;15.17;72.40;101632.00;4971584;28;20054;-61
2023/06/08 03:55:08;;;;;;;18.85;11.40;;;;;;;15.16;73.01;101641.00;4969346;28;20035;-61
2023/06/08 03:57:35;;;;;;;24.20;13.13;;;;;;;15.18;72.71;101642.63;4971363;28;20114;-61
2023/06/08 04:00:01;;;;;;;24.30;12.10;;;;;;;15.06;73.09;101626.53;4976551;28;20048;-61
2023/06/08 04:02:28;;;;;;;22.17;12.20;;;;;;;15.08;73.20;101629.97;5002575;28;20464;-60
2023/06/08 04:04:54;;;;;;;24.65;13.25;;;;;;;15.02;73.70;101641.09;5002422;28;20027;-61
2023/06/08 04:07:20;;;;;;;18.70;11.88;;;;;;;15.02;73.73;101641.97;5002379;28;20674;-60
2023/06/08 04:09:46;;;;;;;23.02;13.27;;;;;;;14.99;73.71;101632.31;5002324;28;20023;-61
2023/06/08 04:12:12;;;;;;;21.42;12.68;;;;;;;15.06;73.71;101645.28;4971078;28;20084;-60
2023/06/08 04:14:37;;;;;;;17.60;12.02;;;;;;;14.94;73.66;101644.31;4970409;28;20023;-61
2023/06/08 04:17:03;;;;;;;20.05;12.52;;;;;;;14.82;73.99;101637.09;4977124;28;20054;-61
2023/06/08 04:19:28;;;;;;;21.02;12.88;;;;;;;14.81;74.32;101643.44;4987500;28;20381;-61
2023/06/08 04:21:56;;;;;;;21.92;13.35;;;;;;;14.87;74.52;101643.88;4969955;28;20051;-61
2023/06/08 04:24:33;;;;;;;24.15;12.93;;;;;;;14.91;73.89;101626.66;4969479;28;20470;-61
2023/06/08 04:26:58;;;;;;;29.08;14.23;;;;;;;14.86;74.48;101635.97;4970928;28;20022;-61
2023/06/08 04:29:24;;;;;;;23.70;12.65;;;;;;;14.84;74.52;101638.72;4969472;28;20392;-61
2023/06/08 04:31:49;;;;;;;22.35;13.20;;;;;;;14.77;74.77;101635.63;4969124;28;20023;-61
2023/06/08 04:34:17;;;;;;;22.88;13.30;;;;;;;14.63;75.06;101638.38;4978495;28;20030;-61
2023/06/08 04:36:43;;;;;;;24.50;13.63;;;;;;;14.84;74.68;101641.41;4970805;28;20034;-61
2023/06/08 04:39:09;;;;;;;23.85;13.07;;;;;;;14.80;74.74;101629.19;4970729;28;20482;-61
2023/06/08 04:41:35;;;;;;;19.92;13.02;;;;;;;14.91;74.14;101613.25;4969382;28;20121;-61
2023/06/08 04:44:01;;;;;;;19.98;13.32;;;;;;;14.85;74.45;101634.22;4970386;28;20053;-61
2023/06/08 04:46:30;;;;;;;24.85;13.52;;;;;;;14.80;74.99;101636.38;4970184;28;20374;-61
2023/06/08 04:48:56;;;;;;;21.42;13.25;;;;;;;14.66;74.99;101634.63;4981818;28;20142;-61
2023/06/08 04:51:29;;;;;;;22.45;14.38;;;;;;;14.79;74.86;101627.47;4987515;28;20501;-62
2023/06/08 04:53:59;;;;;;;26.52;14.55;;;;;;;14.86;74.65;101634.13;4987843;28;20015;-61
2023/06/08 04:56:29;;;;;;;23.30;14.13;;;;;;;14.67;75.05;101637.19;4971172;28;20066;-61
2023/06/08 04:58:57;;;;;;;23.98;14.57;;;;;;;14.81;75.25;101628.22;4970410;28;20072;-61
2023/06/08 05:01:25;;;;;;;19.48;14.05;;;;;;;14.82;74.98;101631.75;4969912;28;20378;-61
2023/06/08 05:03:50;;;;;;;21.63;14.27;;;;;;;14.83;74.36;101633.50;4968972;28;20466;-61
2023/06/08 05:06:15;;;;;;;23.70;15.40;;;;;;;14.81;74.45;101630.06;4970200;28;20120;-61
2023/06/08 05:08:41;;;;;;;28.17;14.73;;;;;;;14.78;74.23;101631.13;5018692;28;20025;-61
2023/06/08 05:11:09;;;;;;;28.55;15.15;;;;;;;14.93;74.04;101627.38;5053629;28;20032;-61
2023/06/08 05:13:34;;;;;;;21.80;13.98;;;;;;;14.84;74.32;101635.19;5025891;28;20050;-61
2023/06/08 05:16:02;;;;;;;29.95;15.27;;;;;;;14.80;74.15;101628.34;4968006;28;20080;-61
2023/06/08 05:18:29;;;;;;;21.10;14.57;;;;;;;14.80;74.03;101621.16;4971177;28;20027;-61
2023/06/08 05:20:56;;;;;;;24.88;14.20;;;;;;;14.95;73.94;101620.09;4974556;28;20527;-61
2023/06/08 05:23:22;;;;;;;23.33;14.18;;;;;;;14.94;74.06;101625.56;5073114;28;20070;-61
2023/06/08 05:25:47;;;;;;;21.75;14.20;;;;;;;14.84;74.09;101632.53;5008529;28;20405;-61
2023/06/08 05:28:13;;;;;;;22.70;14.65;;;;;;;14.87;73.88;101629.63;4973343;28;20027;-61
2023/06/08 05:30:38;;;;;;;26.40;14.63;;;;;;;14.86;73.68;101623.41;4972898;28;20035;-60
2023/06/08 05:33:06;;;;;;;30.48;15.82;;;;;;;14.92;73.50;101620.31;5079047;28;20106;-61
2023/06/08 05:35:31;;;;;;;23.70;13.98;;;;;;;14.88;73.77;101629.53;5074177;28;20035;-61
2023/06/08 05:37:57;;;;;;;25.58;14.98;;;;;;;14.90;73.65;101616.03;5075466;28;20028;-61
2023/06/08 05:40:23;;;;;;;28.88;15.23;;;;;;;14.93;73.79;101622.03;5090893;28;20052;-61
2023/06/08 05:42:51;;;;;;;20.13;14.75;;;;;;;14.86;73.55;101614.53;5072481;28;20062;-61
2023/06/08 05:45:16;;;;;;;26.08;15.30;;;;;;;15.07;73.43;101613.03;4972673;28;20503;-61
2023/06/08 05:47:42;;;;;;;21.58;14.13;;;;;;;15.11;73.45;101619.03;4973311;28;20023;-61
2023/06/08 05:50:08;;;;;;;22.92;14.73;;;;;;;15.25;73.11;101616.25;4972977;28;20030;-61
2023/06/08 05:52:33;;;;;;;20.25;14.27;;;;;;;15.45;72.09;101617.53;5004505;28;20038;-61
2023/06/08 05:55:00;;;;;;;21.95;15.27;;;;;;;15.43;72.16;101616.75;4973010;28;20381;-61
2023/06/08 05:57:25;;;;;;;26.10;15.10;;;;;;;15.55;71.86;101617.72;4971870;28;20098;-61
2023/06/08 05:59:51;;;;;;;21.48;13.88;;;;;;;15.53;71.04;101619.63;4988530;28;20031;-61
2023/06/08 06:02:16;;;;;;;24.27;13.85;;;;;;;15.65;70.71;101608.91;4973056;28;20393;-61
2023/06/08 06:04:42;;;;;;;22.50;14.65;;;;;;;15.49;70.93;101615.47;4970919;28;20035;-61
2023/06/08 06:07:08;;;;;;;24.08;14.73;;;;;;;15.60;70.62;101613.72;5003844;28;20047;-61
2023/06/08 06:09:33;;;;;;;21.55;15.38;;;;;;;15.64;70.78;101612.53;4972920;28;20088;-61
2023/06/08 06:11:59;;;;;;;21.77;14.20;;;;;;;15.73;70.64;101620.91;4980904;28;20023;-61
2023/06/08 06:14:27;;;;;;;25.75;16.38;;;;;;;15.86;70.43;101617.25;4972673;28;20055;-61
2023/06/08 06:16:52;;;;;;;19.70;15.38;;;;;;;15.74;70.10;101615.47;4986729;28;20022;-61
2023/06/08 06:19:18;;;;;;;21.58;14.73;;;;;;;15.87;70.19;101605.53;4979581;28;20125;-61
2023/06/08 06:21:43;;;;;;;26.52;15.02;;;;;;;15.97;70.32;101611.09;4975589;28;20022;-62
2023/06/08 06:24:11;;;;;;;22.42;15.38;;;;;;;15.96;69.70;101605.84;4982481;28;20126;-61
2023/06/08 06:26:36;;;;;;;25.52;14.98;;;;;;;15.94;70.24;101615.81;4971092;28;20049;-61
2023/06/08 06:29:02;;;;;;;24.17;16.17;;;;;;;16.20;69.64;101612.06;4978540;28;20478;-60
2023/06/08 06:31:28;;;;;;;21.50;15.82;;;;;;;16.15;70.22;101614.25;4985545;28;20038;-61
2023/06/08 06:33:53;;;;;;;25.13;16.23;;;;;;;16.05;70.93;101621.25;4992114;28;20018;-61
2023/06/08 06:36:19;;;;;;;23.30;15.57;;;;;;;16.07;70.44;101622.00;4987450;28;20079;-61
2023/06/08 06:38:45;;;;;;;25.20;15.38;;;;;;;16.11;70.91;101621.66;4992321;28;20385;-61
2023/06/08 06:41:10;;;;;;;23.55;16.52;;;;;;;16.11;71.10;101632.38;4973584;28;20046;-61
2023/06/08 06:43:35;;;;;;;22.95;16.55;;;;;;;16.26;70.83;101616.97;4972288;28;20508;-61
2023/06/08 06:46:02;;;;;;;27.77;17.15;;;;;;;16.39;69.79;101626.81;4971992;28;20026;-61
2023/06/08 06:48:27;;;;;;;26.00;17.73;;;;;;;16.37;69.16;101628.75;4972472;28;20090;-62
2023/06/08 06:50:53;;;;;;;24.83;16.30;;;;;;;16.42;69.59;101615.84;4972354;28;20152;-62
2023/06/08 06:53:18;;;;;;;26.75;17.25;;;;;;;16.53;69.34;101626.59;4971022;28;20042;-63
2023/06/08 06:55:44;;;;;;;23.02;16.65;;;;;;;16.67;69.16;101629.09;4970937;28;20023;-63
2023/06/08 06:58:10;;;;;;;25.10;16.02;;;;;;;16.74;68.30;101621.44;4970015;28;20061;-62
2023/06/08 07:00:39;;;;;;;29.48;17.40;;;;;;;16.91;68.34;101622.84;4981145;28;20027;-63
2023/06/08 07:03:05;;;;;;;24.15;16.45;;;;;;;17.00;68.10;101623.00;4968616;28;20034;-63
2023/06/08 07:05:31;;;;;;;23.48;16.67;;;;;;;17.10;68.36;101631.19;4970660;28;20073;-63
2023/06/08 07:07:56;;;;;;;26.00;16.55;;;;;;;17.05;68.11;101621.78;4972303;28;20437;-63
2023/06/08 07:10:22;;;;;;;23.98;16.35;;;;;;;17.12;67.69;101623.00;5072159;28;20026;-63
2023/06/08 07:12:49;;;;;;;23.60;17.10;;;;;;;17.01;67.03;101600.50;4970877;28;20034;-63
2023/06/08 07:15:18;;;;;;;27.13;16.63;;;;;;;17.31;67.25;101631.34;5000771;28;20538;-63
2023/06/08 07:17:45;;;;;;;26.97;16.83;;;;;;;17.34;67.90;101631.09;4970874;28;20023;-62
2023/06/08 07:20:11;;;;;;;23.60;17.00;;;;;;;17.38;67.54;101620.94;4971792;28;20109;-62
2023/06/08 07:22:37;;;;;;;24.75;16.52;;;;;;;17.53;67.11;101633.19;4977421;28;20034;-62
2023/06/08 07:25:05;;;;;;;28.48;16.90;;;;;;;17.57;66.90;101639.19;4970202;28;20031;-63
2023/06/08 07:27:30;;;;;;;28.27;17.92;;;;;;;17.56;66.89;101632.94;4970252;28;20035;-62
2023/06/08 07:29:56;;;;;;;23.75;17.08;;;;;;;17.77;67.04;101624.97;4970280;28;20375;-63
2023/06/08 07:32:21;;;;;;;22.95;17.50;;;;;;;17.90;66.55;101625.69;4968427;28;20436;-63
2023/06/08 07:34:50;;;;;;;25.80;17.10;;;;;;;17.97;66.03;101630.59;4967725;28;20035;-63
2023/06/08 07:37:15;;;;;;;31.52;17.10;;;;;;;18.02;65.15;101628.38;4972942;28;20018;-63
2023/06/08 07:39:40;;;;;;;30.85;17.80;;;;;;;17.88;65.46;101627.69;4971826;28;20033;-63
2023/06/08 07:42:06;;;;;;;25.00;16.70;;;;;;;17.93;66.26;101619.22;4975416;28;20031;-63
2023/06/08 07:44:32;;;;;;;23.20;17.33;;;;;;;18.07;66.10;101624.31;4970764;28;20469;-63
2023/06/08 07:46:57;;;;;;;25.40;16.95;;;;;;;18.13;64.85;101620.28;4970717;28;20084;-63
2023/06/08 07:49:23;;;;;;;26.38;16.58;;;;;;;18.16;65.58;101625.41;4970964;28;20030;-63
2023/06/08 07:51:51;;;;;;;25.30;17.45;;;;;;;18.24;65.92;101625.63;4971965;28;20037;-63
2023/06/08 07:54:19;;;;;;;25.48;17.77;;;;;;;18.40;64.63;101617.13;4972497;28;20626;-63
2023/06/08 07:56:47;;;;;;;26.33;18.30;;;;;;;18.37;65.19;101614.69;4966511;28;20059;-63
2023/06/08 07:59:13;;;;;;;23.50;18.27;;;;;;;18.38;65.10;101617.25;4970565;28;20030;-62
2023/06/08 08:01:38;;;;;;;26.17;18.05;;;;;;;18.54;64.95;101621.34;4973371;28;20036;-63
2023/06/08 08:04:04;;;;;;;24.88;16.08;;;;;;;18.54;65.13;101610.56;4969547;28;20027;-63
2023/06/08 08:06:29;;;;;;;24.73;17.23;;;;;;;18.75;64.10;101613.31;4970764;28;20042;-63
2023/06/08 08:08:55;;;;;;;24.92;16.45;;;;;;;18.83;63.94;101610.81;4969277;28;20027;-63
2023/06/08 08:11:21;;;;;;;25.92;15.73;;;;;;;18.86;63.82;101609.72;4968776;28;20031;-63
2023/06/08 08:13:46;;;;;;;25.80;16.00;;;;;;;19.04;63.47;101614.34;4970695;28;20033;-62
2023/06/08 08:16:14;;;;;;;23.77;16.50;;;;;;;19.11;62.79;101616.50;4972246;28;20525;-63
2023/06/08 08:18:40;;;;;;;26.08;17.38;;;;;;;19.07;62.74;101607.84;5001910;28;20038;-63
2023/06/08 08:21:05;;;;;;;24.30;17.55;;;;;;;19.07;62.67;101610.53;4970564;28;20389;-63
2023/06/08 08:23:33;;;;;;;28.55;16.75;;;;;;;19.12;62.82;101612.81;4970389;28;20023;-63
2023/06/08 08:25:58;;;;;;;21.08;17.58;;;;;;;19.26;63.00;101607.06;5065751;28;20134;-63
2023/06/08 08:28:24;;;;;;;26.23;16.27;;;;;;;19.35;62.58;101608.09;5001847;28;20491;-63
2023/06/08 08:30:50;;;;;;;24.70;15.90;;;;;;;19.50;63.11;101606.75;4981396;28;20080;-63
2023/06/08 08:33:15;;;;;;;24.23;15.73;;;;;;;19.56;62.56;101606.22;4969508;28;20106;-63
2023/06/08 08:35:40;;;;;;;20.40;16.00;;;;;;;19.59;61.75;101613.16;4972594;28;20052;-63
2023/06/08 08:38:06;;;;;;;23.90;16.08;;;;;;;19.64;61.89;101609.06;5070383;28;20046;-63
2023/06/08 08:40:31;;;;;;;23.40;15.85;;;;;;;19.80;61.64;101618.56;4969065;28;20026;-63
2023/06/08 08:43:08;;;;;;;24.00;15.40;;;;;;;20.01;60.60;101618.44;4978419;28;20478;-62
2023/06/08 08:45:35;;;;;;;24.60;15.98;;;;;;;19.85;60.27;101606.31;5069643;28;20034;-63
2023/06/08 08:48:01;;;;;;;22.50;15.77;;;;;;;20.03;60.79;101611.91;5070049;28;20022;-62
2023/06/08 08:50:32;;;;;;;22.95;15.57;;;;;;;20.02;60.94;101607.50;5069634;28;20059;-63
2023/06/08 08:52:59;;;;;;;21.98;15.23;;;;;;;20.08;60.27;101604.22;4979182;28;20033;-62
2023/06/08 08:55:27;;;;;;;20.33;14.65;;;;;;;20.14;60.54;101590.16;4973729;28;20023;-63
2023/06/08 08:58:00;;;;;;;24.20;15.45;;;;;;;20.35;60.72;101597.28;4967274;28;20088;-63
2023/06/08 09:00:26;;;;;;;18.77;15.70;;;;;;;20.36;60.70;101596.31;4967634;28;20070;-63
2023/06/08 09:02:52;;;;;;;22.58;15.13;;;;;;;20.45;60.64;101597.31;5070420;28;20078;-63
2023/06/08 09:05:18;;;;;;;23.00;14.40;;;;;;;20.58;60.26;101587.91;5069164;28;20036;-63
2023/06/08 09:07:43;;;;;;;20.27;14.68;;;;;;;20.75;59.06;101599.84;4983327;28;20374;-63
2023/06/08 09:10:18;;;;;;;21.33;14.15;;;;;;;20.71;59.72;101600.31;4988239;28;20545;-62
2023/06/08 09:12:46;;;;;;;19.92;14.35;;;;;;;20.86;58.87;101604.25;4972533;28;20121;-63
2023/06/08 09:15:13;;;;;;;21.20;14.57;;;;;;;21.04;58.19;101601.66;4969489;28;20413;-63
2023/06/08 09:17:40;;;;;;;17.05;14.20;;;;;;;21.02;57.98;101592.81;4969739;28;20034;-63
2023/06/08 09:20:10;;;;;;;19.33;14.07;;;;;;;21.06;58.62;101599.63;4951802;28;20031;-63
2023/06/08 09:22:36;;;;;;;21.75;14.00;;;;;;;21.07;58.01;101594.09;4970043;28;20062;-62
2023/06/08 09:25:05;;;;;;;20.63;13.77;;;;;;;21.16;58.14;101589.66;4969944;28;20038;-62
2023/06/08 09:27:31;;;;;;;;;;;;;;;21.33;57.70;101588.03;4970612;28;20039;-63
2023/06/08 09:29:57;;;;;;;17.65;12.57;;;;;;;21.37;58.06;101588.59;4969712;28;19914;-63
2023/06/08 09:32:31;;;;;;;15.70;12.52;;;;;;;21.57;56.74;101584.81;4970159;28;20393;-63
2023/06/08 09:35:01;;;;;;;17.55;11.52;;;;;;;21.43;56.32;101588.00;4968591;28;20027;-63
2023/06/08 09:37:29;;;;;;;18.08;12.23;;;;;;;21.57;56.33;101584.81;5070324;28;20473;-63
2023/06/08 09:39:58;;;;;;;16.25;11.30;;;;;;;21.72;56.43;101586.00;4970149;28;20432;-63
2023/06/08 09:42:40;;;;;;;17.00;12.27;;;;;;;21.77;56.85;101590.97;4970000;28;20106;-63
2023/06/08 09:45:13;;;;;;;18.10;11.88;;;;;;;21.81;55.99;101586.09;4968085;28;20050;-63
2023/06/08 09:47:40;;;;;;;18.13;10.85;;;;;;;21.85;55.47;101584.78;4969785;28;20030;-63
2023/06/08 09:50:08;;;;;;;14.77;10.27;;;;;;;21.98;55.92;101583.41;5069897;28;20022;-63
2023/06/08 09:52:35;;;;;;;17.38;11.07;;;;;;;22.09;55.45;101582.34;4969945;28;20027;-63
2023/06/08 09:55:02;;;;;;;14.10;11.23;;;;;;;22.17;54.23;101579.72;4969803;28;20023;-63
2023/06/08 09:57:32;;;;;;;16.33;10.98;;;;;;;22.18;54.49;101583.31;5001133;28;20027;-62
2023/06/08 10:00:24;;;;;;;15.38;10.70;;;;;;;22.43;55.15;101582.50;4969395;28;20033;-63
2023/06/08 10:03:28;;;;;;;19.05;11.05;;;;;;;22.41;55.22;101579.13;4973486;28;20514;-63
2023/06/08 10:05:57;;;;;;;14.30;9.48;;;;;;;22.49;52.96;101562.06;4971015;28;20066;-61
2023/06/08 10:08:26;;;;;;;12.40;8.77;;;;;;;22.67;53.35;101572.88;4970241;28;20031;-61
2023/06/08 10:10:51;;;;;;;13.20;9.75;;;;;;;22.65;53.61;101569.47;4972721;28;20019;-61
2023/06/08 10:13:17;;;;;;;11.88;9.60;;;;;;;22.58;53.72;101569.22;4972975;28;20072;-61
2023/06/08 10:15:43;;;;;;;16.17;10.88;;;;;;;22.61;53.12;101568.91;5059433;28;20036;-61
2023/06/08 10:18:09;;;;;;;12.38;9.23;;;;;;;22.62;52.82;101562.50;4986150;28;20034;-61
2023/06/08 10:20:35;;;;;;;16.75;9.82;;;;;;;22.62;53.34;101565.22;4991930;28;20026;-61
2023/06/08 10:23:02;;;;;;;12.48;10.45;;;;;;;22.61;53.06;101557.22;4990818;28;20034;-61
2023/06/08 10:25:30;;;;;;;12.57;9.88;;;;;;;22.72;53.88;101553.41;4974517;28;20069;-61
2023/06/08 10:28:06;;;;;;;13.45;9.50;;;;;;;22.84;52.38;101558.41;4972717;28;20488;-61
2023/06/08 10:30:39;;;;;;;14.02;7.95;;;;;;;22.88;51.63;101554.38;4970952;28;20058;-60
2023/06/08 10:33:18;;;;;;;11.60;7.53;;;;;;;23.06;51.74;101551.63;4980984;28;20486;-61
2023/06/08 10:36:00;;;;;;;;;;;;;;;23.09;51.99;101543.16;4991534;28;20022;-61
2023/06/08 10:38:26;;;;;;;9.55;5.88;;;;;;;23.21;50.04;101549.16;5003815;28;19921;-61
2023/06/08 10:40:54;;;;;;;7.82;6.30;;;;;;;23.21;49.66;101534.75;4972500;28;20038;-61
2023/06/08 10:43:26;;;;;;;8.02;6.60;;;;;;;23.22;49.61;101544.59;4972182;28;20088;-61
2023/06/08 10:45:51;;;;;;;12.05;6.57;;;;;;;23.29;49.33;101518.47;4969131;28;20027;-61
2023/06/08 10:48:18;;;;;;;10.85;7.38;;;;;;;23.33;48.87;101536.16;4971097;28;20072;-62
2023/06/08 10:50:46;;;;;;;8.98;7.35;;;;;;;23.48;50.93;101531.78;4972487;28;20600;-61
2023/06/08 10:53:12;;;;;;;11.18;7.32;;;;;;;23.70;50.51;101530.34;4971044;28;20034;-62
2023/06/08 10:55:37;;;;;;;10.13;8.13;;;;;;;23.67;49.59;101527.94;4972135;28;20025;-61
2023/06/08 10:58:15;;;;;;;14.60;8.05;;;;;;;23.70;50.34;101526.78;4972223;28;20027;-61
2023/06/08 11:00:42;;;;;;;13.05;7.00;;;;;;;23.75;49.79;101530.72;4972146;28;20121;-61
2023/06/08 11:03:10;;;;;;;10.25;8.05;;;;;;;23.70;50.07;101533.06;4977350;28;20037;-61
2023/06/08 11:05:37;;;;;;;13.02;7.95;;;;;;;23.71;49.40;101518.47;4983435;28;20406;-60
2023/06/08 11:08:04;;;;;;;11.82;7.25;;;;;;;23.69;49.00;101515.03;4988792;28;20376;-61
2023/06/08 11:10:32;;;;;;;12.05;7.43;;;;;;;23.77;49.37;101519.69;4971814;28;20027;-61
2023/06/08 11:13:08;;;;;;;10.52;7.65;;;;;;;23.75;49.24;101510.84;4970879;28;20030;-61
2023/06/08 11:15:38;;;;;;;16.27;6.93;;;;;;;23.93;50.23;101519.69;4971428;28;20148;-61
2023/06/08 11:18:04;;;;;;;9.82;7.15;;;;;;;23.75;47.92;101516.28;4971770;28;20486;-61
2023/06/08 11:20:30;;;;;;;19.30;7.95;;;;;;;23.75;48.63;101514.41;4969518;28;20488;-61